Columbus Metropolitan Airport
KCSG : rendu visible

Aérodrome :











RETROUVEZ-NOUS SUR...

 
LOGIN :

S'inscrire | Disclaimer

   EN    FR    IT 

 









Légende :    VFR   VFR Marginal   IFR   IFR Intensif   IFR Très Intensif
Visi : 
Plafond : 
>= 8 km
>= 3000ft
5 à 8 km
1000 à 3000 ft
1500m à 5 km
500 à 1000 ft
800 à 1500m
200 à 500 ft
< 800m
< 200 ft
Symboles :   Orages  Brouillard  Fortes neiges  Fortes précipitations  Vent > 20 kt






- Altitude de l'aérodrome : 397 ft
- Code IATA : CSG


KCSG - Columbus Metropolitan

DERNIER METAR :
  • 100651Z AUTO 20004KT 10SM FEW038 SCT050 17/14 A3000 RMK AO2 SLP157 T01670144

METARs EXPIRÉS :
  • 100602Z AUTO 00000KT 10SM SCT030 SCT035 BKN070 17/14 A3001 RMK AO2 T01670139
  • 100551Z AUTO 17003KT 10SM BKN028 BKN035 OVC049 17/14 A3001 RMK AO2 SLP158 T01670139 10189 20144 58004
  • 100515Z AUTO 18003KT 10SM BKN028 OVC039 16/13 A3002 RMK AO2 T01610133
  • 100451Z AUTO 00000KT 10SM BKN037 BKN049 OVC065 16/13 A3002 RMK AO2 SLP163 T01610133 402170133

TAF KCSG
Valide du 10 à 06h jusqu'au 11 à 06h UTC


100529Z 1006/1106 VRB05KT P6SM BKN030 OVC040
FM100800 20006KT P6SM SCT008 OVC025
FM101000 21007KT P6SM OVC010
FM101500 23008KT P6SM VCSH OVC015
PROB30 1016/1018 -RA
FM101800 26010KT P6SM -RA SCT015 OVC025
FM110000 36010KT P6SM -SHRA OVC020



MET'MAP, la Météo Aéronautique d'un coup d'oeil ! - Copyright ORBIFLY Décembre 2007 - Disclaimer

ORBIFLY MET'MAP TEAM :

Programmation & Développement : Alexandra Zaïnal
Sur une idée originale de : Baudouin d'Aumeries
Assistance à la programmation : Marc-Olivier Méhu
Soutien technique & logistique : Manuel Goepfert

Contact : metmap@orbifly.com




SOURCES & CREDITS :

   NOAA       Earth
Advisory